地図

経路データ

SID SEASON NUMBER BASIN SUBBASIN NAME ISO_TIME NATURE LAT LON WMO_WIND WMO_PRES WMO_AGENCY TRACK_TYPE DIST2LAND LANDFALL IFLAG USA_AGENCY USA_ATCF_ID USA_LAT USA_LON USA_RECORD USA_STATUS USA_WIND USA_PRES USA_SSHS USA_R34_NE USA_R34_SE USA_R34_SW USA_R34_NW USA_R50_NE USA_R50_SE USA_R50_SW USA_R50_NW USA_R64_NE USA_R64_SE USA_R64_SW USA_R64_NW USA_POCI USA_ROCI USA_RMW USA_EYE TOKYO_LAT TOKYO_LON TOKYO_GRADE TOKYO_WIND TOKYO_PRES TOKYO_R50_DIR TOKYO_R50_LONG TOKYO_R50_SHORT TOKYO_R30_DIR TOKYO_R30_LONG TOKYO_R30_SHORT TOKYO_LAND CMA_LAT CMA_LON CMA_CAT CMA_WIND CMA_PRES HKO_LAT HKO_LON HKO_CAT HKO_WIND HKO_PRES NEWDELHI_LAT NEWDELHI_LON NEWDELHI_GRADE NEWDELHI_WIND NEWDELHI_PRES NEWDELHI_CI NEWDELHI_DP NEWDELHI_POCI REUNION_LAT REUNION_LON REUNION_TYPE REUNION_WIND REUNION_PRES REUNION_TNUM REUNION_CI REUNION_RMW REUNION_R34_NE REUNION_R34_SE REUNION_R34_SW REUNION_R34_NW REUNION_R50_NE REUNION_R50_SE REUNION_R50_SW REUNION_R50_NW REUNION_R64_NE REUNION_R64_SE REUNION_R64_SW REUNION_R64_NW BOM_LAT BOM_LON BOM_TYPE BOM_WIND BOM_PRES BOM_TNUM BOM_CI BOM_RMW BOM_R34_NE BOM_R34_SE BOM_R34_SW BOM_R34_NW BOM_R50_NE BOM_R50_SE BOM_R50_SW BOM_R50_NW BOM_R64_NE BOM_R64_SE BOM_R64_SW BOM_R64_NW BOM_ROCI BOM_POCI BOM_EYE BOM_POS_METHOD BOM_PRES_METHOD NADI_LAT NADI_LON NADI_CAT NADI_WIND NADI_PRES WELLINGTON_LAT WELLINGTON_LON WELLINGTON_WIND WELLINGTON_PRES DS824_LAT DS824_LON DS824_STAGE DS824_WIND DS824_PRES TD9636_LAT TD9636_LON TD9636_STAGE TD9636_WIND TD9636_PRES TD9635_LAT TD9635_LON TD9635_WIND TD9635_PRES TD9635_ROCI NEUMANN_LAT NEUMANN_LON NEUMANN_CLASS NEUMANN_WIND NEUMANN_PRES MLC_LAT MLC_LON MLC_CLASS MLC_WIND MLC_PRES USA_GUST BOM_GUST BOM_GUST_PER REUNION_GUST REUNION_GUST_PER USA_SEAHGT USA_SEARAD_NE USA_SEARAD_SE USA_SEARAD_SW USA_SEARAD_NW STORM_SPEED STORM_DIR
2020076S25168 2020 7 SP MM GRETEL 2020-03-15 18:00:00 NR -25.0000 168.100 50 985 wellington main 315 315 ________O_____ -1 -25.0000 168.100 50 985 26 141
2020076S25168 2020 7 SP MM GRETEL 2020-03-15 21:00:00 NR -25.9857 168.991 main 455 455 ________P_____ -1 -25.9857 168.991 45 987 27 135
2020076S25168 2020 7 SP MM GRETEL 2020-03-16 00:00:00 NR -26.9000 170.200 40 990 wellington main 603 603 ________O_____ -1 -26.9000 170.200 40 990 31 124
2020076S25168 2020 7 SP MM GRETEL 2020-03-16 03:00:00 NR -27.7031 171.899 main 761 671 ________P_____ -1 -27.7031 171.899 40 990 35 117
2020076S25168 2020 7 SP MM GRETEL 2020-03-16 06:00:00 NR -28.5000 173.700 40 990 wellington main 672 591 ________O_____ -1 -28.5000 173.700 40 990 34 122
2020076S25168 2020 7 SP MM GRETEL 2020-03-16 09:00:00 NR -29.5085 175.218 main 594 557 ________P_____ -1 -29.5085 175.218 19 31 128
2020076S25168 2020 7 SP MM GRETEL 2020-03-16 12:00:00 NR -30.4000 176.500 wellington main 562 558 ________O_____ -1 -30.4000 176.500 -1 25 125
2020076S25168 2020 7 SP MM GRETEL 2020-03-16 15:00:00 NR -30.9180 177.551 main 575 572 ________P_____ -1 -30.9180 177.551 -1 18 116
2020076S25168 2020 7 SP MM GRETEL 2020-03-16 18:00:00 NR -31.2000 178.400 wellington main 594 594 ________O_____ -1 -31.2000 178.400 -1 14 107
2020076S25168 2020 7 SP MM GRETEL 2020-03-16 21:00:00 NR -31.3322 179.101 main 630 628 ________P_____ -1 -31.3322 179.101 -1 13 103
2020076S25168 2020 7 SP MM GRETEL 2020-03-17 00:00:00 NR -31.5000 179.900 wellington main 669 669 ________O_____ -1 -31.5000 179.900 -1 18 109
2020076S25168 2020 7 SP MM GRETEL 2020-03-17 03:00:00 NR -31.9249 181.088 main 684 672 ________P_____ -1 -31.9249 -178.912 -1 24 114
2020076S25168 2020 7 SP MM GRETEL 2020-03-17 06:00:00 NR -32.5000 182.500 wellington main 678 674 ________O_____ -1 -32.5000 -177.500 -1 26 116
2020076S25168 2020 7 SP MM GRETEL 2020-03-17 09:00:00 NR -33.0772 183.865 main 701 701 ________P_____ -1 -33.0772 -176.135 -1 28 117
2020076S25168 2020 7 SP MM GRETEL 2020-03-17 12:00:00 NR -33.8000 185.500 wellington main 757 757 ________O_____ -1 -33.8000 -174.500 -1 37 118
2020076S25168 2020 7 SP MM GRETEL 2020-03-17 15:00:00 NR -34.8347 187.810 main 883 883 ________P_____ -1 -34.8347 -172.190 -1 42 117
2020076S25168 2020 7 SP MM GRETEL 2020-03-17 18:00:00 NR -35.7000 190.000 wellington main 1037 1037 ________O_____ -1 -35.7000 -170.000 -1 29 113
2020076S25168 2020 7 SP MM GRETEL 2020-03-17 21:00:00 NR -35.9823 191.114 main 1124 1124 ________P_____ -1 -35.9823 -168.886 -1 16 101
2020076S25168 2020 7 SP MM GRETEL 2020-03-18 00:00:00 NR -36.0000 192.000 wellington main 1203 1203 ________O_____ -1 -36.0000 -168.000 -1 20 89
2020076S25168 2020 7 SP MM GRETEL 2020-03-18 03:00:00 NR -35.9299 193.600 main 1345 1345 ________P_____ -1 -35.9299 -166.400 -1 25 90
2020076S25168 2020 7 SP MM GRETEL 2020-03-18 06:00:00 NR -36.0000 195.100 wellington main 1474 1474 ________O_____ -1 -36.0000 -164.900 -1 19 108
2020076S25168 2020 7 SP MM GRETEL 2020-03-18 09:00:00 NR -36.5403 195.869 main 1533 1532 ________P_____ -1 -36.5403 -164.131 -1 17 139
2020076S25168 2020 7 SP MM GRETEL 2020-03-18 12:00:00 NR -37.3000 196.500 wellington main 1573 1573 ________O_____ -1 -37.3000 -163.500 -1 20 138
2020076S25168 2020 7 SP MM GRETEL 2020-03-18 15:00:00 NR -38.0545 197.604 main 1660 1660 ________P_____ -1 -38.0545 -162.396 -1 22 129
2020076S25168 2020 7 SP MM GRETEL 2020-03-18 18:00:00 NR -38.7000 198.700 wellington main 1751 1751 ________O_____ -1 -38.7000 -161.300 -1 18 125
2020076S25168 2020 7 SP MM GRETEL 2020-03-18 21:00:00 NR -39.0812 199.463 main 1818 1818 ________P_____ -1 -39.0812 -160.537 -1 12 121
2020076S25168 2020 7 SP MM GRETEL 2020-03-19 00:00:00 NR -39.3000 200.000 wellington main 1861 ________O_____ -1 -39.3000 -160.000 -1 9 118

デジタル台風データ・検索

IBTrACS Databaseについて

本データベースは、米国NOAAが公開する1842年以降の世界の熱帯低気圧のベストトラックデータアーカイブInternational Best Track Archive for Climate Stewardship (IBTrACS)を、ウェブで閲覧しやすい形式に変換したものです。

最終更新日:2021-11-26